KFKA

Fillmore County Airport

Preston, Minnesota, USA
METAR KFKA 191055Z AUTO 15007KT 1/4SM FG OVC001 15/15 A3000 RMK AO2 T01540148
Observed Flight Rules
Sep-19 @ 10:55 UTC (10 minutes ago) Instrument Flight Rules
Wind Visibility Clouds Conditions
150° at 7 knots 1/4 miles
  • Overcast at 100' AGL
  • Fog
Temperatures Readings
Current 15°C / 59°F
Dewpoint 15°C / 59°F
Humidity 100%
Altimeter 30" Hg
Pressure 1016 hPa
Elevation 389
METAR KFKA 191055Z AUTO 15007KT 1/4SM FG OVC001 15/15 A3000 RMK AO2 T01540148
Observed Flight Rules
Sep-19 @ 10:55 UTC
(10 minutes ago)
LIFR
Wind Visibility
150° at 7 knots 1/4 miles
Clouds
  • Overcast at 100' AGL
Conditions
  • Fog
Temperature Dewpoint
15°C / 59°F 15°C / 59°F
Humidity Altimeter Pressure
100% 30" Hg 1016 hPa